Time;durP1;ratioP1;P1;durP2;ratioP2;P2;SDS_P1;SDS_P2;PMS_P1;PMS_P2;Temp;Humidity;BMP_temperature;BMP_pressure;BME280_temperature;BME280_humidity;BME280_pressure;Samples;Min_cycle;Max_cycle;Signal;HPM_P1;HPM_P2
2022/07/24 00:01:47;;;;;;;9.00;8.30;;;19.80;99.90;;;;;;6127953;23;20197;-74
2022/07/24 00:04:12;;;;;;;10.48;9.23;;;19.80;99.90;;;;;;6153933;23;20157;-74
2022/07/24 00:06:38;;;;;;;9.63;8.82;;;19.80;99.90;;;;;;6153694;23;20707;-74
2022/07/24 00:09:05;;;;;;;9.43;8.65;;;19.70;99.90;;;;;;6153283;23;20228;-74
2022/07/24 00:11:31;;;;;;;10.68;8.35;;;19.80;99.90;;;;;;6154103;23;20169;-74
2022/07/24 00:13:56;;;;;;;9.52;8.80;;;19.90;99.90;;;;;;6127540;23;20160;-74
2022/07/24 00:16:22;;;;;;;8.82;8.18;;;20.10;99.90;;;;;;6153972;23;20176;-73
2022/07/24 00:18:48;;;;;;;9.65;8.75;;;20.20;99.90;;;;;;6153780;23;20173;-73
2022/07/24 00:21:13;;;;;;;8.88;8.07;;;20.30;99.90;;;;;;6153772;23;20444;-73
2022/07/24 00:23:39;;;;;;;9.15;8.35;;;20.40;99.90;;;;;;6153772;23;20149;-73
2022/07/24 00:26:05;;;;;;;9.13;8.38;;;20.40;99.90;;;;;;6156719;23;20141;-73
2022/07/24 00:28:30;;;;;;;10.40;8.65;;;20.50;99.90;;;;;;6157131;23;20200;-73
2022/07/24 00:30:56;;;;;;;8.63;7.97;;;20.40;99.90;;;;;;6156794;23;20195;-73
2022/07/24 00:33:22;;;;;;;9.57;8.77;;;20.40;99.90;;;;;;6157241;23;20251;-74
2022/07/24 00:35:47;;;;;;;9.00;8.20;;;20.40;99.90;;;;;;6157228;23;20153;-74
2022/07/24 00:38:13;;;;;;;8.77;7.88;;;20.40;99.90;;;;;;6156847;23;20181;-74
2022/07/24 00:40:39;;;;;;;9.35;8.55;;;20.30;99.90;;;;;;6157009;23;20152;-73
2022/07/24 00:43:04;;;;;;;9.73;8.52;;;20.20;99.90;;;;;;6130903;23;20176;-74
2022/07/24 00:45:30;;;;;;;9.48;8.50;;;20.10;99.90;;;;;;6156778;23;20233;-73
2022/07/24 00:47:56;;;;;;;9.18;8.32;;;20.10;99.90;;;;;;6156818;23;20203;-73
2022/07/24 00:50:21;;;;;;;9.38;8.57;;;20.10;99.90;;;;;;6156930;23;20149;-73
2022/07/24 00:52:48;;;;;;;9.30;8.50;;;20.00;99.90;;;;;;6157102;23;20223;-73
2022/07/24 00:55:14;;;;;;;9.32;8.63;;;20.10;99.90;;;;;;6157060;23;20150;-74
2022/07/24 00:57:43;;;;;;;8.95;8.18;;;20.10;99.90;;;;;;6156641;23;20192;-74
2022/07/24 01:00:10;;;;;;;8.20;7.50;;;20.10;99.90;;;;;;6156901;23;20583;-74
2022/07/24 01:02:39;;;;;;;8.38;7.78;;;20.10;99.90;;;;;;6156416;23;20220;-73
2022/07/24 01:05:05;;;;;;;8.60;7.80;;;20.10;99.90;;;;;;6156795;23;20230;-74
2022/07/24 01:07:32;;;;;;;9.65;8.95;;;20.10;99.90;;;;;;6157279;23;20161;-73
2022/07/24 01:09:58;;;;;;;10.18;9.15;;;20.10;99.90;;;;;;6156705;23;20204;-73
2022/07/24 01:12:25;;;;;;;8.77;7.97;;;20.10;99.90;;;;;;6156654;23;20177;-74
2022/07/24 01:14:50;;;;;;;9.68;8.35;;;20.10;99.90;;;;;;6157040;23;20149;-74
2022/07/24 01:17:16;;;;;;;9.30;8.50;;;20.00;99.90;;;;;;6156872;23;20227;-74
2022/07/24 01:19:41;;;;;;;8.57;7.97;;;20.00;99.90;;;;;;6156160;23;20150;-74
2022/07/24 01:22:07;;;;;;;9.45;8.57;;;20.00;99.90;;;;;;6156528;23;20170;-73
2022/07/24 01:24:34;;;;;;;8.50;7.90;;;20.00;99.90;;;;;;6157045;23;20156;-73
2022/07/24 01:27:00;;;;;;;8.80;8.00;;;19.90;99.90;;;;;;6157346;23;20228;-74
2022/07/24 01:29:25;;;;;;;9.70;8.90;;;19.90;99.90;;;;;;6156378;23;20204;-74
2022/07/24 01:31:51;;;;;;;12.82;8.82;;;19.90;99.90;;;;;;6156789;23;20646;-74
2022/07/24 01:34:16;;;;;;;8.63;7.93;;;20.00;99.90;;;;;;6156622;23;20181;-74
2022/07/24 01:36:43;;;;;;;8.77;8.07;;;20.00;99.90;;;;;;6154909;23;20173;-74
2022/07/24 01:39:09;;;;;;;9.35;8.55;;;20.00;99.90;;;;;;6155092;23;20146;-74
2022/07/24 01:41:35;;;;;;;9.38;8.68;;;19.90;99.90;;;;;;6155067;23;20244;-74
2022/07/24 01:44:00;;;;;;;8.80;8.10;;;19.90;99.90;;;;;;6154955;23;20169;-74
2022/07/24 01:46:26;;;;;;;9.88;9.05;;;19.90;99.90;;;;;;6155406;23;20154;-74
2022/07/24 01:48:52;;;;;;;10.00;8.98;;;19.90;99.90;;;;;;6155031;23;20245;-75
2022/07/24 01:51:17;;;;;;;9.90;9.20;;;19.80;99.90;;;;;;6155284;23;20235;-74
2022/07/24 01:53:43;;;;;;;9.18;8.48;;;19.80;99.90;;;;;;6155000;23;20240;-73
2022/07/24 01:56:08;;;;;;;9.18;8.48;;;19.80;99.90;;;;;;6154919;23;20203;-74
2022/07/24 01:58:34;;;;;;;9.55;8.75;;;19.80;99.90;;;;;;6154552;23;20169;-74
2022/07/24 02:01:00;;;;;;;10.10;9.27;;;19.80;99.90;;;;;;6154698;23;20161;-73
2022/07/24 02:03:25;;;;;;;9.57;8.88;;;19.80;99.90;;;;;;6155150;23;20169;-74
2022/07/24 02:05:51;;;;;;;10.25;9.35;;;19.80;99.90;;;;;;6155153;23;20590;-73
2022/07/24 02:08:16;;;;;;;10.02;9.23;;;19.70;99.90;;;;;;6155045;23;20173;-73
2022/07/24 02:10:42;;;;;;;10.07;9.15;;;19.70;99.90;;;;;;6154880;23;20460;-73
2022/07/24 02:13:08;;;;;;;9.68;8.77;;;19.70;99.90;;;;;;6154696;23;20173;-73
2022/07/24 02:15:34;;;;;;;8.80;8.00;;;19.70;99.90;;;;;;6154569;23;20154;-73
2022/07/24 02:18:01;;;;;;;8.82;8.13;;;19.60;99.90;;;;;;6154826;23;20204;-73
2022/07/24 02:20:27;;;;;;;9.38;8.48;;;19.50;99.90;;;;;;6154466;23;20164;-73
2022/07/24 02:22:54;;;;;;;9.63;8.77;;;19.50;99.90;;;;;;6154994;23;20265;-73
2022/07/24 02:25:20;;;;;;;8.80;8.13;;;19.50;99.90;;;;;;6155098;23;20154;-73
2022/07/24 02:27:46;;;;;;;8.50;7.80;;;19.50;99.90;;;;;;6155314;23;20142;-73
2022/07/24 02:30:15;;;;;;;9.32;8.63;;;19.40;99.90;;;;;;6154334;23;20150;-73
2022/07/24 02:32:41;;;;;;;9.40;8.70;;;19.30;99.90;;;;;;6154491;23;20180;-73
2022/07/24 02:35:07;;;;;;;8.88;8.18;;;19.20;99.90;;;;;;6155048;23;20487;-72
2022/07/24 02:37:37;;;;;;;9.07;8.27;;;19.10;99.90;;;;;;6154476;23;20183;-73
2022/07/24 02:40:04;;;;;;;9.23;8.52;;;19.10;99.90;;;;;;6154733;23;20149;-73
2022/07/24 02:42:29;;;;;;;10.02;9.18;;;19.00;99.90;;;;;;6154595;23;20204;-73
2022/07/24 02:44:55;;;;;;;9.85;8.95;;;18.90;99.90;;;;;;6155051;23;20231;-73
2022/07/24 02:47:21;;;;;;;9.85;8.88;;;18.90;99.90;;;;;;6154418;23;20157;-73
2022/07/24 02:49:46;;;;;;;9.32;8.63;;;18.90;99.90;;;;;;6154223;23;20157;-74
2022/07/24 02:52:12;;;;;;;10.40;9.50;;;18.80;99.90;;;;;;6154768;23;20224;-74
2022/07/24 02:54:37;;;;;;;9.95;9.15;;;18.80;99.90;;;;;;6154444;23;20153;-74
2022/07/24 02:57:03;;;;;;;10.65;9.75;;;18.80;99.90;;;;;;6154702;23;20177;-74
2022/07/24 02:59:28;;;;;;;11.30;10.50;;;18.80;99.90;;;;;;6154414;23;20185;-74
2022/07/24 03:01:54;;;;;;;10.38;9.57;;;18.80;99.90;;;;;;6155033;23;20169;-73
2022/07/24 03:04:20;;;;;;;10.10;9.30;;;18.70;99.90;;;;;;6154957;23;20161;-73
2022/07/24 03:06:45;;;;;;;12.63;10.05;;;18.70;99.90;;;;;;6127869;23;20165;-73
2022/07/24 03:09:11;;;;;;;11.07;10.23;;;18.70;99.90;;;;;;6154117;23;20594;-73
2022/07/24 03:11:36;;;;;;;10.45;9.60;;;18.70;99.90;;;;;;6154218;23;20173;-73
2022/07/24 03:14:02;;;;;;;10.98;9.98;;;18.60;99.90;;;;;;6154719;23;20598;-73
2022/07/24 03:16:28;;;;;;;10.10;9.27;;;18.70;99.90;;;;;;6154609;23;20173;-74
2022/07/24 03:18:53;;;;;;;11.10;10.10;;;18.70;99.90;;;;;;6153936;23;20148;-73
2022/07/24 03:21:19;;;;;;;9.88;8.95;;;18.70;99.90;;;;;;6154718;23;20153;-74
2022/07/24 03:23:45;;;;;;;11.50;10.32;;;18.70;99.90;;;;;;6154626;23;20623;-73
2022/07/24 03:26:10;;;;;;;10.57;9.65;;;18.80;99.90;;;;;;6153919;23;20153;-75
2022/07/24 03:28:36;;;;;;;10.82;9.93;;;18.80;99.90;;;;;;6153876;23;20160;-74
2022/07/24 03:31:02;;;;;;;9.98;9.07;;;18.80;99.90;;;;;;6154129;23;20145;-74
2022/07/24 03:33:28;;;;;;;11.77;10.82;;;18.80;99.90;;;;;;6154196;23;20215;-74
2022/07/24 03:35:56;;;;;;;12.82;10.30;;;18.80;99.90;;;;;;6154610;23;20606;-73
2022/07/24 03:38:21;;;;;;;11.00;10.02;;;18.70;99.90;;;;;;6154014;23;20173;-73
2022/07/24 03:40:47;;;;;;;10.25;9.45;;;18.80;99.90;;;;;;6154066;23;20172;-73
2022/07/24 03:43:13;;;;;;;11.13;9.95;;;18.80;99.90;;;;;;6153475;23;20173;-74
2022/07/24 03:45:38;;;;;;;11.02;10.13;;;18.70;99.90;;;;;;6153530;23;20594;-74
2022/07/24 03:48:04;;;;;;;11.02;10.02;;;18.70;99.90;;;;;;6154437;23;20491;-73
2022/07/24 03:50:30;;;;;;;11.48;10.27;;;18.70;99.90;;;;;;6154004;23;20153;-73
2022/07/24 03:52:56;;;;;;;10.43;9.70;;;18.70;99.90;;;;;;6151871;23;20621;-73
2022/07/24 03:55:21;;;;;;;11.20;10.30;;;18.70;99.90;;;;;;6153524;23;20157;-74
2022/07/24 03:57:47;;;;;;;11.20;10.10;;;18.70;99.90;;;;;;6154049;23;20191;-74
2022/07/24 04:00:13;;;;;;;11.18;10.27;;;18.60;99.90;;;;;;6153891;23;20149;-74
2022/07/24 04:02:39;;;;;;;11.75;10.65;;;18.60;99.90;;;;;;6154092;23;20519;-73
2022/07/24 04:05:08;;;;;;;11.93;10.93;;;18.60;99.90;;;;;;6153848;23;20150;-73
2022/07/24 04:07:35;;;;;;;11.65;10.48;;;18.50;99.90;;;;;;6154580;23;20154;-73
2022/07/24 04:10:00;;;;;;;11.85;10.75;;;18.50;99.90;;;;;;6154288;23;20162;-73
2022/07/24 04:12:26;;;;;;;11.38;10.38;;;18.50;99.90;;;;;;6153927;23;20508;-73
2022/07/24 04:14:52;;;;;;;11.68;10.60;;;18.50;99.90;;;;;;6154384;23;20153;-73
2022/07/24 04:17:17;;;;;;;12.05;10.95;;;18.50;99.90;;;;;;6154250;23;20181;-73
2022/07/24 04:19:43;;;;;;;12.05;11.05;;;18.40;99.90;;;;;;6153650;23;20485;-73
2022/07/24 04:22:09;;;;;;;11.77;10.82;;;18.50;99.90;;;;;;6153738;23;20173;-72
2022/07/24 04:24:34;;;;;;;12.02;10.90;;;18.40;99.90;;;;;;6154468;23;20149;-72
2022/07/24 04:27:00;;;;;;;12.18;11.18;;;18.60;99.90;;;;;;6154327;23;20232;-73
2022/07/24 04:29:25;;;;;;;11.32;10.35;;;18.70;99.90;;;;;;6153761;23;20240;-73
2022/07/24 04:31:51;;;;;;;11.65;10.60;;;18.70;99.90;;;;;;6154446;23;20228;-73
2022/07/24 04:34:17;;;;;;;11.27;10.27;;;18.80;99.90;;;;;;6153865;23;20153;-73
2022/07/24 04:36:42;;;;;;;12.02;10.98;;;18.90;99.90;;;;;;6153754;23;20487;-73
2022/07/24 04:39:08;;;;;;;12.70;11.60;;;18.90;99.90;;;;;;6153347;23;20237;-73
2022/07/24 04:41:34;;;;;;;10.85;10.05;;;18.90;99.90;;;;;;6153896;23;20622;-73
2022/07/24 04:43:59;;;;;;;10.73;9.77;;;19.00;99.90;;;;;;6154087;23;20587;-73
2022/07/24 04:46:25;;;;;;;10.75;9.90;;;19.10;99.90;;;;;;6153708;23;20339;-73
2022/07/24 04:48:51;;;;;;;11.30;10.40;;;19.10;99.90;;;;;;6153553;23;20153;-74
2022/07/24 04:51:16;;;;;;;11.60;10.68;;;19.20;99.90;;;;;;6154053;23;20153;-73
2022/07/24 04:53:42;;;;;;;11.82;10.82;;;19.30;99.90;;;;;;6152459;23;20146;-73
2022/07/24 04:56:07;;;;;;;12.45;11.45;;;19.30;99.90;;;;;;6153557;23;20145;-74
2022/07/24 04:58:33;;;;;;;11.48;10.57;;;19.30;99.90;;;;;;6152844;23;20919;-74
2022/07/24 05:00:59;;;;;;;11.50;10.45;;;19.40;99.90;;;;;;6153608;23;20173;-73
2022/07/24 05:03:25;;;;;;;10.18;9.48;;;19.40;99.90;;;;;;6153427;23;20169;-73
2022/07/24 05:05:51;;;;;;;11.77;10.77;;;19.50;99.90;;;;;;6153881;23;20548;-74
2022/07/24 05:08:16;;;;;;;10.52;9.63;;;19.50;99.90;;;;;;6153316;23;20154;-74
2022/07/24 05:10:42;;;;;;;11.73;10.75;;;19.60;99.90;;;;;;6153648;23;20154;-74
2022/07/24 05:13:08;;;;;;;10.85;9.95;;;19.60;99.90;;;;;;6154736;23;20204;-73
2022/07/24 05:15:33;;;;;;;11.40;10.48;;;19.70;99.90;;;;;;6153355;23;20164;-74
2022/07/24 05:17:59;;;;;;;11.68;10.77;;;19.70;99.90;;;;;;6154632;23;20176;-74
2022/07/24 05:20:25;;;;;;;10.80;9.98;;;19.80;99.90;;;;;;6152494;23;20137;-75
2022/07/24 05:22:51;;;;;;;9.63;8.82;;;19.90;99.90;;;;;;6155377;23;20551;-76
2022/07/24 05:25:17;;;;;;;11.57;10.48;;;20.00;99.90;;;;;;6155221;23;20204;-73
2022/07/24 05:27:43;;;;;;;12.13;11.07;;;20.00;99.90;;;;;;6129170;23;20183;-72
2022/07/24 05:30:09;;;;;;;13.98;11.10;;;20.10;99.90;;;;;;6154064;23;20150;-73
2022/07/24 05:32:35;;;;;;;10.55;9.75;;;20.20;99.90;;;;;;6155179;23;20177;-74
2022/07/24 05:35:00;;;;;;;10.93;10.13;;;20.30;99.90;;;;;;6155704;23;20276;-74
2022/07/24 05:37:26;;;;;;;10.55;9.65;;;20.50;99.90;;;;;;6155362;23;20188;-74
2022/07/24 05:39:52;;;;;;;11.02;10.02;;;20.70;99.90;;;;;;6154229;23;20817;-73
2022/07/24 05:42:17;;;;;;;11.50;10.30;;;20.80;99.90;;;;;;6155525;23;20212;-73
2022/07/24 05:44:43;;;;;;;10.60;9.60;;;20.90;99.90;;;;;;6153894;23;20185;-73
2022/07/24 05:47:08;;;;;;;10.05;9.30;;;21.20;99.90;;;;;;6153397;23;20211;-73
2022/07/24 05:49:34;;;;;;;10.30;9.50;;;21.50;99.90;;;;;;6128906;23;20188;-73
2022/07/24 05:52:02;;;;;;;11.90;10.75;;;21.70;99.90;;;;;;6128999;23;20519;-73
2022/07/24 05:54:27;;;;;;;11.77;10.77;;;21.90;99.90;;;;;;6154894;23;20221;-74
2022/07/24 05:56:53;;;;;;;10.93;10.13;;;21.90;99.90;;;;;;6155233;23;20204;-73
2022/07/24 05:59:18;;;;;;;11.45;10.55;;;21.90;99.90;;;;;;6154903;23;20496;-73
2022/07/24 06:01:44;;;;;;;11.23;10.32;;;21.80;99.90;;;;;;6155364;23;20380;-73
2022/07/24 06:04:10;;;;;;;10.27;9.27;;;21.70;99.90;;;;;;6154963;23;20153;-73
2022/07/24 06:06:35;;;;;;;9.70;9.00;;;21.80;99.90;;;;;;6154989;23;20153;-73
2022/07/24 06:09:01;;;;;;;10.35;9.55;;;21.80;99.90;;;;;;6155883;23;20199;-73
2022/07/24 06:11:26;;;;;;;9.70;8.98;;;21.80;99.90;;;;;;6156266;23;20157;-73
2022/07/24 06:13:52;;;;;;;8.98;8.27;;;21.90;99.90;;;;;;6156621;23;20599;-73
2022/07/24 06:16:18;;;;;;;10.27;9.27;;;22.00;99.90;;;;;;6129110;23;20157;-73
2022/07/24 06:18:44;;;;;;;10.40;9.50;;;22.10;99.90;;;;;;6156058;23;20159;-73
2022/07/24 06:21:09;;;;;;;9.57;8.68;;;22.10;99.90;;;;;;6155868;23;20228;-73
2022/07/24 06:23:35;;;;;;;10.02;9.23;;;22.20;99.90;;;;;;6155524;23;20169;-72
2022/07/24 06:26:01;;;;;;;9.18;8.48;;;22.20;99.90;;;;;;6157189;23;20204;-72
2022/07/24 06:28:26;;;;;;;10.23;9.43;;;22.30;99.90;;;;;;6156467;23;20176;-74
2022/07/24 06:30:52;;;;;;;8.75;8.15;;;22.40;99.90;;;;;;6156356;23;20196;-73
2022/07/24 06:33:17;;;;;;;8.82;8.13;;;22.50;99.90;;;;;;6156114;23;20177;-73
2022/07/24 06:35:43;;;;;;;8.15;7.55;;;22.60;99.90;;;;;;6130003;23;20158;-73
2022/07/24 06:38:11;;;;;;;8.73;8.02;;;22.70;99.90;;;;;;6155600;23;20169;-73
2022/07/24 06:40:38;;;;;;;9.32;8.45;;;22.70;99.90;;;;;;6152160;23;20156;-73
2022/07/24 06:43:04;;;;;;;9.95;9.00;;;22.80;99.90;;;;;;6155010;23;20224;-73
2022/07/24 06:45:33;;;;;;;8.73;8.02;;;22.80;99.90;;;;;;6154981;23;20149;-72
2022/07/24 06:48:02;;;;;;;8.43;7.68;;;22.90;99.90;;;;;;6153187;23;20180;-72
2022/07/24 06:50:28;;;;;;;8.18;7.45;;;23.00;99.90;;;;;;6155671;23;20172;-72
2022/07/24 06:52:54;;;;;;;8.30;7.60;;;23.10;99.90;;;;;;6154916;23;20173;-74
2022/07/24 06:55:20;;;;;;;8.02;7.32;;;23.20;99.90;;;;;;6157788;23;20153;-72
2022/07/24 06:57:45;;;;;;;8.18;7.53;;;23.30;99.90;;;;;;6159865;23;20181;-73
2022/07/24 07:00:11;;;;;;;6.80;6.40;;;23.40;99.90;;;;;;6162419;23;20150;-73
2022/07/24 07:02:37;;;;;;;8.35;7.57;;;23.50;99.90;;;;;;6133736;23;20181;-73
2022/07/24 07:05:07;;;;;;;8.60;7.47;;;23.50;99.90;;;;;;6160142;23;20177;-74
2022/07/24 07:07:33;;;;;;;7.65;6.85;;;23.60;99.90;;;;;;6157482;23;20149;-73
2022/07/24 07:09:58;;;;;;;7.13;6.55;;;23.70;99.90;;;;;;6157708;23;20153;-75
2022/07/24 07:12:24;;;;;;;7.70;6.97;;;23.70;99.90;;;;;;6129267;23;20233;-75
2022/07/24 07:14:50;;;;;;;7.43;6.93;;;23.90;99.90;;;;;;6134083;23;20232;-73
2022/07/24 07:17:16;;;;;;;7.63;7.00;;;23.90;99.90;;;;;;6133053;23;20185;-73
2022/07/24 07:19:44;;;;;;;6.43;5.90;;;24.10;99.90;;;;;;6158593;23;20210;-73
2022/07/24 07:22:10;;;;;;;7.30;6.70;;;24.10;99.90;;;;;;6158649;23;20169;-73
2022/07/24 07:24:36;;;;;;;6.90;6.40;;;24.20;99.90;;;;;;6160042;23;20158;-73
2022/07/24 07:27:02;;;;;;;7.47;6.72;;;24.30;99.90;;;;;;6159937;23;20177;-73
2022/07/24 07:29:28;;;;;;;6.10;5.70;;;24.40;99.90;;;;;;6159832;23;20156;-73
2022/07/24 07:31:53;;;;;;;7.03;6.53;;;24.60;99.90;;;;;;6159946;23;20240;-72
2022/07/24 07:34:19;;;;;;;6.38;5.88;;;24.70;99.90;;;;;;6158608;23;20582;-71
2022/07/24 07:36:45;;;;;;;6.82;6.22;;;24.80;99.90;;;;;;6159146;23;20252;-71
2022/07/24 07:39:10;;;;;;;6.97;6.47;;;24.90;99.90;;;;;;6157995;23;20230;-71
2022/07/24 07:41:36;;;;;;;6.90;6.40;;;25.00;99.90;;;;;;6156658;23;20165;-71
2022/07/24 07:44:02;;;;;;;6.90;6.40;;;25.10;99.90;;;;;;6156921;23;20184;-71
2022/07/24 07:46:29;;;;;;;6.75;6.25;;;25.10;99.90;;;;;;6156057;23;20146;-71
2022/07/24 07:48:54;;;;;;;6.00;5.50;;;25.20;99.90;;;;;;6157135;23;20150;-71
2022/07/24 07:51:20;;;;;;;6.32;5.85;;;25.30;99.90;;;;;;6156510;23;20172;-71
2022/07/24 07:53:46;;;;;;;6.85;6.20;;;25.20;99.90;;;;;;6156576;23;20153;-70
2022/07/24 07:56:11;;;;;;;6.70;6.20;;;25.10;99.90;;;;;;6154974;23;20185;-70
2022/07/24 07:58:37;;;;;;;6.05;5.55;;;25.10;99.90;;;;;;6128090;23;20208;-70
2022/07/24 08:01:03;;;;;;;6.82;6.22;;;25.20;99.90;;;;;;6154940;23;20172;-72
2022/07/24 08:03:29;;;;;;;6.70;6.20;;;25.40;99.90;;;;;;6153606;23;20193;-71
2022/07/24 08:05:54;;;;;;;6.60;6.10;;;25.60;99.90;;;;;;6156152;23;20149;-71
2022/07/24 08:08:20;;;;;;;6.50;6.00;;;25.70;99.90;;;;;;6157248;23;20487;-71
2022/07/24 08:10:46;;;;;;;6.43;5.80;;;25.80;99.90;;;;;;6157204;23;20158;-72
2022/07/24 08:13:12;;;;;;;6.10;5.70;;;25.90;99.90;;;;;;6159088;23;20180;-73
2022/07/24 08:15:38;;;;;;;7.13;6.43;;;25.70;99.90;;;;;;6158108;23;20283;-73
2022/07/24 08:18:04;;;;;;;7.03;6.43;;;25.70;99.90;;;;;;6158111;23;20233;-71
2022/07/24 08:20:29;;;;;;;6.50;6.10;;;25.80;99.90;;;;;;6153423;23;20244;-71
2022/07/24 08:22:55;;;;;;;6.85;6.32;;;25.90;99.90;;;;;;6153909;23;20512;-71
2022/07/24 08:25:21;;;;;;;7.07;6.53;;;25.90;99.90;;;;;;6153739;23;20641;-71
2022/07/24 08:27:47;;;;;;;6.18;5.75;;;25.90;99.90;;;;;;6153517;23;20149;-71
2022/07/24 08:30:13;;;;;;;6.15;5.70;;;25.90;99.90;;;;;;6153637;23;20158;-72
2022/07/24 08:32:39;;;;;;;6.65;6.05;;;26.00;99.90;;;;;;6153863;23;20173;-72
2022/07/24 08:35:06;;;;;;;6.22;5.72;;;26.10;99.90;;;;;;6152806;23;20153;-72
2022/07/24 08:37:38;;;;;;;5.97;5.47;;;26.10;99.90;;;;;;6153269;23;20176;-73
2022/07/24 08:40:06;;;;;;;6.82;6.38;;;26.30;99.90;;;;;;6152877;23;20621;-74
2022/07/24 08:42:31;;;;;;;6.68;6.07;;;26.20;99.90;;;;;;6153255;23;20248;-72
2022/07/24 08:44:57;;;;;;;6.53;5.93;;;26.20;99.90;;;;;;6153436;23;20192;-72
2022/07/24 08:47:25;;;;;;;6.93;6.40;;;26.30;99.90;;;;;;6155935;23;20149;-72
2022/07/24 08:49:54;;;;;;;6.40;5.93;;;26.40;99.90;;;;;;6155585;23;20203;-73
2022/07/24 08:52:24;;;;;;;6.78;6.18;;;26.60;99.90;;;;;;6155370;23;20169;-73
2022/07/24 08:54:49;;;;;;;6.60;6.20;;;26.70;99.90;;;;;;6154697;23;20142;-73
2022/07/24 08:57:15;;;;;;;6.75;6.07;;;26.90;99.90;;;;;;6129145;23;20181;-73
2022/07/24 08:59:41;;;;;;;6.00;5.60;;;27.10;99.90;;;;;;6128667;23;20152;-73
2022/07/24 09:02:08;;;;;;;6.30;5.85;;;27.30;99.90;;;;;;6155304;23;20240;-73
2022/07/24 09:04:44;;;;;;;6.57;6.07;;;27.50;99.90;;;;;;6155531;23;20160;-72
2022/07/24 09:07:13;;;;;;;6.60;6.10;;;27.70;99.90;;;;;;6129423;23;20156;-73
2022/07/24 09:09:40;;;;;;;6.22;5.82;;;27.80;99.90;;;;;;6155096;23;20165;-73
2022/07/24 09:12:24;;;;;;;5.97;5.57;;;28.00;99.90;;;;;;6155154;23;20684;-73
2022/07/24 09:14:49;;;;;;;6.28;5.68;;;28.10;99.90;;;;;;6154595;23;20182;-73
2022/07/24 09:17:19;;;;;;;6.07;5.57;;;28.30;99.90;;;;;;6155403;23;20189;-73
2022/07/24 09:19:55;;;;;;;6.60;6.10;;;28.40;99.30;;;;;;6154604;23;20464;-72
2022/07/24 09:22:34;;;;;;;5.60;5.30;;;28.50;99.90;;;;;;6154464;23;20610;-71
2022/07/24 09:25:13;;;;;;;6.75;5.38;;;28.70;97.50;;;;;;6155965;23;20130;-71
2022/07/24 09:27:50;;;;;;;5.47;5.13;;;28.90;98.20;;;;;;6129419;23;20243;-71
2022/07/24 09:30:29;;;;;;;6.20;5.68;;;29.20;95.50;;;;;;6154830;23;20151;-71
2022/07/24 09:33:03;;;;;;;6.40;5.90;;;29.50;93.90;;;;;;6153840;23;20622;-71
2022/07/24 09:35:39;;;;;;;5.90;5.40;;;29.70;94.90;;;;;;6155743;23;20137;-71
2022/07/24 09:38:07;;;;;;;4.88;4.57;;;30.60;91.60;;;;;;6155935;23;20168;-71
2022/07/24 09:40:54;;;;;;;5.78;5.35;;;32.20;81.50;;;;;;6155235;23;20204;-71
2022/07/24 09:43:24;;;;;;;5.60;4.50;;;34.30;73.10;;;;;;6154697;23;20646;-72
2022/07/24 09:46:01;;;;;;;4.80;4.40;;;36.00;66.40;;;;;;6155208;23;20149;-71
2022/07/24 09:48:34;;;;;;;4.70;4.40;;;37.70;57.60;;;;;;6153892;23;20582;-72
2022/07/24 09:51:03;;;;;;;4.75;4.45;;;39.10;53.90;;;;;;6154843;23;20145;-72
2022/07/24 09:53:33;;;;;;;4.78;4.40;;;39.70;52.50;;;;;;6154576;23;20173;-72
2022/07/24 09:56:07;;;;;;;5.40;4.88;;;40.50;49.50;;;;;;6154678;23;20176;-69
2022/07/24 09:58:36;;;;;;;4.78;4.40;;;40.80;49.90;;;;;;6153320;23;20188;-70
2022/07/24 10:01:02;;;;;;;4.22;3.97;;;41.50;47.80;;;;;;6155233;23;20148;-70
2022/07/24 10:03:30;;;;;;;4.85;4.30;;;42.20;46.20;;;;;;6154185;23;20169;-70
2022/07/24 10:06:00;;;;;;;4.63;4.10;;;42.20;46.80;;;;;;6153979;23;20204;-69
2022/07/24 10:08:27;;;;;;;4.10;3.90;;;42.60;44.50;;;;;;6154409;23;20491;-70
2022/07/24 10:10:54;;;;;;;4.43;3.90;;;42.60;43.50;;;;;;6154836;23;20184;-71
2022/07/24 10:13:19;;;;;;;7.20;3.72;;;43.00;44.50;;;;;;6154572;23;20169;-71
2022/07/24 10:16:11;;;;;;;4.35;3.95;;;43.10;42.90;;;;;;6155103;23;20443;-70
2022/07/24 10:18:59;;;;;;;4.20;4.00;;;42.10;44.10;;;;;;6154417;23;20252;-71
2022/07/24 10:21:37;;;;;;;4.57;4.28;;;40.90;44.50;;;;;;6155331;23;20227;-71
2022/07/24 10:24:11;;;;;;;6.57;6.05;;;40.50;44.50;;;;;;6156627;23;20141;-71
2022/07/24 10:26:45;;;;;;;12.85;11.75;;;41.70;42.90;;;;;;6155459;23;20157;-71
2022/07/24 10:29:19;;;;;;;5.20;4.90;;;43.00;40.60;;;;;;6154056;23;20144;-71
2022/07/24 10:31:55;;;;;;;4.18;3.88;;;43.80;40.10;;;;;;6153861;23;20175;-72
2022/07/24 10:34:43;;;;;;;3.75;3.47;;;45.30;38.80;;;;;;6154793;23;20165;-72
2022/07/24 10:37:28;;;;;;;3.42;3.22;;;46.10;37.00;;;;;;6154691;23;20188;-72
2022/07/24 10:40:08;;;;;;;3.72;3.53;;;45.80;36.50;;;;;;6153958;23;20161;-72
2022/07/24 10:43:08;;;;;;;3.85;3.65;;;44.20;37.80;;;;;;6154571;23;20238;-71
2022/07/24 10:45:35;;;;;;;4.40;4.00;;;42.30;40.60;;;;;;6154186;23;20133;-72
2022/07/24 10:48:20;;;;;;;3.97;3.65;;;42.30;40.80;;;;;;6153616;23;20174;-72
2022/07/24 10:50:57;;;;;;;3.83;3.63;;;43.00;40.20;;;;;;6127981;23;20606;-71
2022/07/24 10:53:28;;;;;;;4.15;3.88;;;41.70;41.00;;;;;;6153891;23;20626;-71
2022/07/24 10:56:17;;;;;;;3.92;3.72;;;40.70;42.30;;;;;;6153972;23;20175;-72
2022/07/24 10:59:07;;;;;;;4.13;3.92;;;41.40;41.50;;;;;;6154170;23;20568;-71
2022/07/24 11:01:51;;;;;;;3.53;3.30;;;41.40;41.10;;;;;;6153795;23;20690;-72
2022/07/24 11:04:23;;;;;;;4.13;3.83;;;41.50;41.60;;;;;;6153318;23;20139;-71
2022/07/24 11:07:06;;;;;;;3.67;3.47;;;43.00;39.70;;;;;;6154328;23;20610;-72
2022/07/24 11:09:53;;;;;;;3.88;3.50;;;44.40;37.70;;;;;;6127282;23;20200;-72
2022/07/24 11:12:30;;;;;;;4.00;3.70;;;44.60;38.50;;;;;;6153722;23;20200;-73
2022/07/24 11:18:13;;;;;;;4.03;3.72;;;45.60;36.40;;;;;;6154276;23;20306;-72
2022/07/24 11:20:39;;;;;;;3.80;3.60;;;45.60;37.60;;;;;;6153968;23;20136;-72
2022/07/24 11:23:19;;;;;;;4.35;4.05;;;46.50;36.30;;;;;;6153525;23;20309;-71
2022/07/24 11:25:44;;;;;;;4.32;3.92;;;46.30;36.80;;;;;;6153791;23;20133;-72
2022/07/24 11:28:10;;;;;;;4.35;4.10;;;46.30;36.40;;;;;;6154069;23;20203;-71
2022/07/24 11:30:44;;;;;;;3.78;3.25;;;46.20;37.70;;;;;;6153475;23;20334;-72
2022/07/24 11:33:11;;;;;;;3.17;3.05;;;46.10;37.30;;;;;;6154243;23;20516;-72
2022/07/24 11:35:37;;;;;;;3.45;3.30;;;46.40;36.00;;;;;;6154392;23;20164;-72
2022/07/24 11:38:05;;;;;;;3.72;3.42;;;46.30;35.60;;;;;;6153693;23;20172;-73
2022/07/24 11:40:31;;;;;;;3.70;3.50;;;47.20;34.10;;;;;;6153909;23;20145;-72
2022/07/24 11:43:01;;;;;;;3.63;3.25;;;46.60;35.50;;;;;;6153199;23;20168;-71
2022/07/24 11:45:27;;;;;;;3.53;3.33;;;46.30;36.20;;;;;;6154286;23;20137;-73
2022/07/24 11:47:56;;;;;;;3.83;3.50;;;46.30;35.60;;;;;;6153378;23;20178;-71
2022/07/24 11:50:24;;;;;;;3.53;3.33;;;46.30;36.60;;;;;;6153269;23;20152;-72
2022/07/24 11:52:50;;;;;;;3.63;3.35;;;46.60;35.90;;;;;;6154059;23;20173;-73
2022/07/24 11:55:19;;;;;;;3.47;3.28;;;46.60;36.10;;;;;;6153189;23;20153;-74
2022/07/24 11:57:53;;;;;;;3.78;3.47;;;46.70;35.50;;;;;;6156347;23;20269;-75
2022/07/24 12:00:22;;;;;;;3.50;3.30;;;47.20;34.80;;;;;;6153604;23;20554;-76
2022/07/24 12:02:51;;;;;;;3.50;3.30;;;48.60;33.10;;;;;;6153972;23;20169;-76
2022/07/24 12:05:24;;;;;;;3.88;3.58;;;48.70;33.10;;;;;;6154037;23;20164;-70
2022/07/24 12:07:50;;;;;;;3.63;3.42;;;47.90;33.20;;;;;;6154073;23;20153;-69
2022/07/24 12:10:20;;;;;;;3.45;3.25;;;46.50;34.00;;;;;;6153586;23;20163;-69
2022/07/24 12:12:48;;;;;;;3.50;3.33;;;45.00;36.20;;;;;;6153891;23;20192;-69
2022/07/24 12:15:14;;;;;;;3.65;3.45;;;44.30;36.00;;;;;;6152719;23;20656;-69
2022/07/24 12:17:56;;;;;;;3.63;3.42;;;43.60;37.40;;;;;;6154355;23;20219;-69
2022/07/24 12:20:23;;;;;;;3.75;3.38;;;43.10;36.80;;;;;;6152190;23;20145;-69
2022/07/24 12:22:49;;;;;;;3.38;3.17;;;42.70;37.50;;;;;;6152519;23;20197;-69
2022/07/24 12:25:15;;;;;;;3.70;3.50;;;43.30;36.50;;;;;;6153743;23;20133;-69
2022/07/24 12:27:43;;;;;;;4.38;3.85;;;44.40;36.90;;;;;;6152983;23;20205;-71
2022/07/24 12:30:27;;;;;;;3.70;3.50;;;45.00;36.50;;;;;;6153901;23;20149;-72
2022/07/24 12:33:13;;;;;;;3.67;3.38;;;45.30;34.90;;;;;;6153999;23;20173;-72
2022/07/24 12:35:54;;;;;;;3.50;3.30;;;44.80;35.30;;;;;;6127220;23;20149;-72
2022/07/24 12:38:27;;;;;;;3.70;3.50;;;44.10;37.10;;;;;;6153785;23;20169;-72
2022/07/24 12:41:02;;;;;;;3.47;3.28;;;43.30;38.10;;;;;;6127109;23;20172;-72
2022/07/24 12:43:28;;;;;;;4.22;3.92;;;42.60;37.70;;;;;;6153337;23;20518;-69
2022/07/24 12:46:08;;;;;;;3.85;3.65;;;41.80;38.70;;;;;;6152719;23;20224;-72
2022/07/24 12:48:34;;;;;;;3.70;3.50;;;40.80;39.40;;;;;;6152998;23;20191;-71
2022/07/24 12:51:06;;;;;;;3.75;3.55;;;40.40;39.80;;;;;;6153649;23;20149;-70